Time;durP1;ratioP1;P1;durP2;ratioP2;P2;SDS_P1;SDS_P2;PMS_P1;PMS_P2;Temp;Humidity;BMP_temperature;BMP_pressure;BME280_temperature;BME280_humidity;BME280_pressure;Samples;Min_cycle;Max_cycle;Signal;HPM_P1;HPM_P2
2023/08/31 00:01:20;;;;;;;1.60;1.20;;;15.20;99.90;;;;;;5029709;28;20222;-56
2023/08/31 00:03:47;;;;;;;2.07;1.37;;;15.30;99.90;;;;;;5027374;28;20230;-57
2023/08/31 00:06:14;;;;;;;2.43;1.37;;;15.20;99.90;;;;;;5025279;28;20210;-57
2023/08/31 00:08:41;;;;;;;2.27;1.13;;;15.20;99.90;;;;;;5013916;28;20303;-57
2023/08/31 00:11:09;;;;;;;1.57;1.47;;;15.20;99.90;;;;;;5009641;28;20195;-57
2023/08/31 00:13:38;;;;;;;1.00;1.00;;;15.20;99.90;;;;;;5015082;28;20661;-56
2023/08/31 00:16:05;;;;;;;4.13;1.97;;;15.10;99.90;;;;;;5026604;28;20539;-57
2023/08/31 00:18:32;;;;;;;1.80;1.60;;;15.10;99.90;;;;;;5009903;28;20203;-57
2023/08/31 00:20:59;;;;;;;1.87;1.70;;;15.10;99.90;;;;;;5010022;28;20793;-56
2023/08/31 00:23:26;;;;;;;1.80;1.70;;;15.10;99.90;;;;;;5026514;28;20762;-57
2023/08/31 00:25:53;;;;;;;1.20;1.20;;;15.10;99.90;;;;;;5031821;28;20217;-56
2023/08/31 00:28:22;;;;;;;1.13;1.13;;;15.10;99.90;;;;;;5033351;28;20297;-57
2023/08/31 00:30:49;;;;;;;1.23;0.97;;;15.10;99.90;;;;;;5033405;28;20280;-57
2023/08/31 00:33:17;;;;;;;1.57;1.40;;;15.10;99.90;;;;;;5031722;28;20360;-57
2023/08/31 00:35:45;;;;;;;1.17;1.17;;;15.00;99.90;;;;;;5023955;28;20324;-56
2023/08/31 00:38:12;;;;;;;0.83;0.80;;;15.00;99.90;;;;;;5032314;28;20202;-57
2023/08/31 00:40:45;;;;;;;1.90;1.10;;;15.00;99.90;;;;;;5025125;28;20356;-57
2023/08/31 00:43:17;;;;;;;0.80;0.80;;;15.10;99.90;;;;;;5012365;28;20289;-56
2023/08/31 00:45:46;;;;;;;1.23;1.17;;;15.00;99.90;;;;;;5020771;28;20206;-56
2023/08/31 00:48:18;;;;;;;3.33;1.33;;;15.00;99.90;;;;;;5026756;28;20211;-57
2023/08/31 00:50:46;;;;;;;1.57;1.47;;;15.00;99.90;;;;;;5032711;28;20195;-57
2023/08/31 00:53:16;;;;;;;1.07;1.07;;;15.00;99.90;;;;;;5030993;28;20333;-57
2023/08/31 00:55:45;;;;;;;1.40;1.40;;;14.90;99.90;;;;;;5031430;28;20221;-57
2023/08/31 00:58:16;;;;;;;1.30;1.20;;;15.00;99.90;;;;;;5019949;28;20203;-57
2023/08/31 01:00:55;;;;;;;1.97;1.57;;;15.00;99.90;;;;;;5030211;28;20291;-56
2023/08/31 01:03:33;;;;;;;1.83;1.70;;;15.00;99.90;;;;;;5026211;28;20269;-57
2023/08/31 01:06:10;;;;;;;1.43;1.23;;;15.00;99.90;;;;;;5012594;28;20629;-57
2023/08/31 01:08:43;;;;;;;1.73;1.37;;;14.90;99.90;;;;;;5028544;28;20209;-57
2023/08/31 01:11:17;;;;;;;1.40;1.40;;;14.90;99.90;;;;;;5031154;28;20298;-57
2023/08/31 01:13:49;;;;;;;0.87;0.87;;;14.90;99.90;;;;;;5023491;28;20321;-57
2023/08/31 01:16:18;;;;;;;1.80;1.50;;;14.90;99.90;;;;;;5031414;28;20308;-56
2023/08/31 01:18:47;;;;;;;2.20;1.30;;;14.90;99.90;;;;;;5023534;28;20685;-56
2023/08/31 01:21:22;;;;;;;1.47;1.40;;;14.90;99.90;;;;;;5012717;28;20229;-57
2023/08/31 01:23:54;;;;;;;1.53;1.30;;;14.90;99.90;;;;;;5011835;28;20265;-57
2023/08/31 01:26:22;;;;;;;1.23;1.13;;;14.70;99.90;;;;;;5012057;28;20206;-56
2023/08/31 01:28:50;;;;;;;1.03;1.03;;;14.70;99.90;;;;;;5023360;28;20270;-57
2023/08/31 01:31:18;;;;;;;1.10;1.10;;;14.70;99.90;;;;;;5032358;28;20297;-57
2023/08/31 01:33:45;;;;;;;3.40;1.60;;;14.70;99.90;;;;;;5030408;28;20308;-57
2023/08/31 01:36:19;;;;;;;1.40;1.30;;;14.80;99.90;;;;;;5027640;28;20245;-57
2023/08/31 01:38:51;;;;;;;1.70;1.60;;;14.80;99.90;;;;;;5023289;28;20220;-57
2023/08/31 01:41:22;;;;;;;1.77;1.67;;;14.80;99.90;;;;;;5031932;28;20229;-57
2023/08/31 01:43:51;;;;;;;1.03;1.03;;;14.70;99.90;;;;;;5031316;28;20254;-57
2023/08/31 01:46:18;;;;;;;2.20;1.20;;;14.80;99.90;;;;;;5031932;28;20202;-57
2023/08/31 01:48:45;;;;;;;1.67;1.57;;;14.70;99.90;;;;;;5022550;28;20206;-57
2023/08/31 01:51:13;;;;;;;1.67;1.50;;;14.70;99.90;;;;;;5030686;28;20198;-57
2023/08/31 01:53:40;;;;;;;1.33;1.33;;;14.70;99.90;;;;;;5013748;28;20223;-59
2023/08/31 01:56:07;;;;;;;1.40;1.40;;;14.60;99.90;;;;;;5011961;28;20261;-58
2023/08/31 01:58:35;;;;;;;1.27;1.27;;;14.60;99.90;;;;;;5018715;28;20207;-59
2023/08/31 02:01:02;;;;;;;1.27;1.27;;;14.60;99.90;;;;;;5030411;28;20218;-59
2023/08/31 02:03:29;;;;;;;1.30;1.23;;;14.60;99.90;;;;;;5030649;28;20249;-59
2023/08/31 02:05:56;;;;;;;1.40;1.30;;;14.60;99.90;;;;;;5031171;28;20206;-59
2023/08/31 02:08:23;;;;;;;1.47;1.47;;;14.60;99.90;;;;;;5028151;28;20205;-59
2023/08/31 02:10:50;;;;;;;1.17;1.07;;;14.60;99.90;;;;;;5031185;28;20274;-58
2023/08/31 02:13:17;;;;;;;1.90;1.70;;;14.60;99.90;;;;;;5030695;28;20218;-59
2023/08/31 02:15:46;;;;;;;1.90;1.90;;;14.60;99.90;;;;;;5031372;28;20327;-58
2023/08/31 02:18:14;;;;;;;1.97;1.90;;;14.60;99.90;;;;;;5022209;28;20298;-58
2023/08/31 02:20:41;;;;;;;2.13;1.90;;;14.60;99.90;;;;;;5031021;28;20230;-60
2023/08/31 02:23:09;;;;;;;2.57;1.80;;;14.50;99.90;;;;;;5028674;28;20226;-59
2023/08/31 02:25:36;;;;;;;1.73;1.63;;;14.50;99.90;;;;;;5024171;28;20234;-58
2023/08/31 02:28:03;;;;;;;1.43;1.40;;;14.50;99.90;;;;;;5024343;28;20207;-58
2023/08/31 02:30:30;;;;;;;2.53;2.43;;;14.50;99.90;;;;;;5019084;28;20261;-59
2023/08/31 02:32:58;;;;;;;2.20;2.10;;;14.60;99.90;;;;;;5028968;28;20230;-59
2023/08/31 02:35:25;;;;;;;2.07;1.97;;;14.60;99.90;;;;;;5031118;28;20582;-59
2023/08/31 02:37:52;;;;;;;1.67;1.67;;;14.50;99.90;;;;;;5021726;28;20593;-59
2023/08/31 02:40:20;;;;;;;2.40;2.30;;;14.50;99.90;;;;;;5027876;28;20218;-58
2023/08/31 02:42:50;;;;;;;1.93;1.83;;;14.50;99.90;;;;;;5028234;28;20223;-59
2023/08/31 02:45:18;;;;;;;2.33;2.23;;;14.70;99.90;;;;;;5018043;28;20350;-59
2023/08/31 02:47:44;;;;;;;2.00;1.90;;;14.70;99.90;;;;;;5027428;28;20588;-59
2023/08/31 02:50:13;;;;;;;2.10;2.00;;;14.80;99.90;;;;;;5030798;28;20206;-59
2023/08/31 02:52:41;;;;;;;2.07;1.97;;;14.70;99.90;;;;;;5029696;28;20790;-58
2023/08/31 02:55:10;;;;;;;6.93;2.23;;;14.80;99.90;;;;;;5029502;28;20202;-59
2023/08/31 02:57:37;;;;;;;2.03;1.97;;;14.70;99.90;;;;;;5028428;28;20629;-59
2023/08/31 03:00:08;;;;;;;2.07;1.97;;;14.60;99.90;;;;;;5019436;28;20269;-59
2023/08/31 03:02:36;;;;;;;1.90;1.90;;;14.60;99.90;;;;;;5009923;28;20263;-59
2023/08/31 03:05:03;;;;;;;2.33;2.23;;;14.60;99.90;;;;;;5010604;28;20238;-59
2023/08/31 03:07:31;;;;;;;1.57;1.57;;;14.60;99.90;;;;;;5024297;28;20264;-59
2023/08/31 03:09:58;;;;;;;2.83;1.50;;;14.60;99.90;;;;;;5030497;28;20589;-58
2023/08/31 03:12:25;;;;;;;2.13;2.03;;;14.60;99.90;;;;;;5028439;28;20630;-59
2023/08/31 03:14:52;;;;;;;3.17;1.33;;;14.60;99.90;;;;;;5029535;28;20206;-58
2023/08/31 03:17:19;;;;;;;1.77;1.67;;;14.60;99.90;;;;;;5028693;28;20202;-59
2023/08/31 03:19:46;;;;;;;1.50;1.40;;;14.50;99.90;;;;;;5029636;28;20206;-58
2023/08/31 03:22:13;;;;;;;1.60;1.60;;;14.60;99.90;;;;;;5009729;28;20281;-59
2023/08/31 03:24:41;;;;;;;1.40;1.40;;;14.50;99.90;;;;;;5010467;28;20281;-58
2023/08/31 03:27:08;;;;;;;1.27;1.17;;;14.50;99.90;;;;;;5018042;28;20214;-59
2023/08/31 03:29:35;;;;;;;1.43;1.43;;;14.50;99.90;;;;;;5024880;28;20225;-60
2023/08/31 03:32:02;;;;;;;1.90;1.80;;;14.50;99.90;;;;;;5027133;28;20355;-59
2023/08/31 03:34:30;;;;;;;1.30;1.30;;;14.40;99.90;;;;;;5021278;28;20305;-60
2023/08/31 03:36:57;;;;;;;1.60;1.50;;;14.50;99.90;;;;;;5027015;28;20261;-59
2023/08/31 03:39:24;;;;;;;1.67;1.67;;;14.50;99.90;;;;;;5024372;28;20664;-59
2023/08/31 03:41:53;;;;;;;1.70;1.60;;;14.40;99.90;;;;;;5030329;28;20254;-59
2023/08/31 03:44:21;;;;;;;1.77;1.73;;;14.40;99.90;;;;;;5028452;28;20786;-59
2023/08/31 03:46:48;;;;;;;2.43;2.33;;;14.30;99.90;;;;;;5025993;28;20211;-59
2023/08/31 03:49:15;;;;;;;2.10;1.70;;;14.30;99.90;;;;;;5017280;28;20213;-59
2023/08/31 03:51:43;;;;;;;2.73;1.87;;;14.30;99.90;;;;;;5010359;28;20575;-59
2023/08/31 03:54:10;;;;;;;2.50;2.40;;;14.30;99.90;;;;;;5008334;28;20326;-58
2023/08/31 03:56:37;;;;;;;2.00;1.83;;;14.30;99.90;;;;;;5029253;28;20224;-58
2023/08/31 03:59:06;;;;;;;1.67;1.60;;;14.20;99.90;;;;;;5012182;28;20276;-58
2023/08/31 04:01:33;;;;;;;1.70;1.70;;;14.20;99.90;;;;;;5014231;28;20627;-59
2023/08/31 04:04:00;;;;;;;2.50;2.30;;;14.30;99.90;;;;;;5026840;28;20222;-60
2023/08/31 04:06:28;;;;;;;2.80;2.67;;;14.30;99.90;;;;;;5029483;28;20240;-59
2023/08/31 04:08:55;;;;;;;1.77;1.77;;;14.20;99.90;;;;;;5020719;28;20203;-59
2023/08/31 04:11:22;;;;;;;1.87;1.77;;;14.20;99.90;;;;;;5013818;28;20211;-58
2023/08/31 04:13:49;;;;;;;1.97;1.87;;;14.30;99.90;;;;;;5013140;28;20258;-59
2023/08/31 04:16:18;;;;;;;1.70;1.60;;;14.30;99.90;;;;;;5021345;28;20739;-59
2023/08/31 04:18:47;;;;;;;4.13;1.73;;;14.30;99.90;;;;;;5032354;28;20573;-60
2023/08/31 04:21:14;;;;;;;1.73;1.73;;;14.30;99.90;;;;;;5029295;28;20223;-58
2023/08/31 04:23:41;;;;;;;1.63;1.63;;;14.40;99.90;;;;;;5026421;28;20226;-60
2023/08/31 04:26:12;;;;;;;1.30;1.30;;;14.30;99.90;;;;;;5028648;28;20194;-59
2023/08/31 04:28:41;;;;;;;2.20;2.10;;;14.30;99.90;;;;;;5018890;28;20231;-59
2023/08/31 04:31:08;;;;;;;2.83;2.63;;;14.30;99.90;;;;;;5025043;28;20191;-60
2023/08/31 04:33:39;;;;;;;2.47;2.37;;;14.30;99.90;;;;;;5032705;28;20226;-59
2023/08/31 04:36:06;;;;;;;2.03;1.93;;;14.30;99.90;;;;;;5029639;28;20233;-59
2023/08/31 04:38:34;;;;;;;5.07;4.67;;;14.30;99.90;;;;;;5031874;28;20622;-59
2023/08/31 04:41:02;;;;;;;5.13;4.73;;;14.30;99.90;;;;;;5033191;28;20692;-58
2023/08/31 04:43:29;;;;;;;4.70;4.13;;;14.30;99.90;;;;;;5032325;28;20260;-58
2023/08/31 04:45:56;;;;;;;4.80;4.40;;;14.40;99.90;;;;;;5024035;28;20203;-60
2023/08/31 04:48:23;;;;;;;3.27;3.10;;;14.30;99.90;;;;;;5034210;28;20221;-58
2023/08/31 04:50:57;;;;;;;2.17;2.07;;;14.30;99.90;;;;;;5053187;28;20282;-59
2023/08/31 04:53:24;;;;;;;2.53;1.90;;;14.30;99.90;;;;;;5043608;28;20222;-58
2023/08/31 04:55:50;;;;;;;1.90;1.80;;;14.30;99.90;;;;;;5033178;28;20211;-59
2023/08/31 04:58:18;;;;;;;1.87;1.73;;;14.30;99.90;;;;;;5033343;28;20210;-58
2023/08/31 05:00:45;;;;;;;1.57;1.57;;;14.30;99.90;;;;;;5032734;28;20203;-59
2023/08/31 05:03:14;;;;;;;1.50;1.50;;;14.30;99.90;;;;;;5031460;28;20337;-58
2023/08/31 05:05:42;;;;;;;7.60;2.83;;;14.30;99.90;;;;;;5037080;28;20284;-58
2023/08/31 05:08:14;;;;;;;2.53;2.43;;;14.30;99.90;;;;;;5032825;28;20280;-59
2023/08/31 05:10:41;;;;;;;3.07;1.97;;;14.30;99.90;;;;;;5032051;28;20260;-60
2023/08/31 05:13:08;;;;;;;1.70;1.70;;;14.40;99.90;;;;;;5030949;28;20219;-59
2023/08/31 05:15:36;;;;;;;2.00;1.93;;;14.30;99.90;;;;;;5031684;28;20252;-58
2023/08/31 05:18:03;;;;;;;2.47;2.30;;;14.40;99.90;;;;;;5013539;28;20253;-59
2023/08/31 05:20:30;;;;;;;3.30;2.37;;;14.40;99.90;;;;;;5013055;28;20285;-59
2023/08/31 05:22:57;;;;;;;1.97;1.87;;;14.40;99.90;;;;;;5019864;28;20226;-59
2023/08/31 05:25:25;;;;;;;1.57;1.57;;;14.50;99.90;;;;;;5032345;28;20190;-58
2023/08/31 05:27:52;;;;;;;2.63;1.80;;;14.50;99.90;;;;;;5014639;28;20616;-58
2023/08/31 05:30:19;;;;;;;2.27;1.70;;;14.60;99.90;;;;;;5012735;28;20206;-59
2023/08/31 05:32:46;;;;;;;1.83;1.83;;;14.70;99.90;;;;;;5024048;28;20218;-59
2023/08/31 05:35:13;;;;;;;1.67;1.67;;;14.70;99.90;;;;;;5023670;28;20248;-58
2023/08/31 05:37:41;;;;;;;1.33;1.33;;;14.80;99.90;;;;;;5032253;28;20264;-58
2023/08/31 05:40:10;;;;;;;2.17;1.30;;;14.90;99.90;;;;;;5039224;28;20212;-58
2023/08/31 05:42:38;;;;;;;1.53;1.53;;;14.90;99.90;;;;;;5051535;28;20313;-58
2023/08/31 05:45:07;;;;;;;1.13;1.10;;;15.00;99.90;;;;;;5026937;28;20199;-59
2023/08/31 05:47:34;;;;;;;1.17;1.17;;;15.10;99.90;;;;;;5027639;28;20240;-59
2023/08/31 05:50:01;;;;;;;1.40;1.30;;;15.10;99.90;;;;;;5032279;28;20238;-58
2023/08/31 05:52:28;;;;;;;1.20;1.17;;;15.20;99.90;;;;;;5031366;28;20660;-59
2023/08/31 05:54:55;;;;;;;1.67;1.67;;;15.30;99.90;;;;;;5022895;28;20207;-58
2023/08/31 05:57:23;;;;;;;3.37;1.63;;;15.40;99.90;;;;;;5040650;28;20202;-58
2023/08/31 05:59:51;;;;;;;1.10;1.10;;;15.40;99.90;;;;;;5051931;28;20205;-60
2023/08/31 06:02:18;;;;;;;1.83;1.73;;;15.40;99.90;;;;;;5041875;28;20226;-59
2023/08/31 06:04:45;;;;;;;1.63;1.53;;;15.40;99.90;;;;;;5022158;28;20199;-59
2023/08/31 06:07:12;;;;;;;2.47;2.13;;;15.40;99.90;;;;;;5027106;28;20553;-59
2023/08/31 06:09:39;;;;;;;3.50;3.30;;;15.50;99.90;;;;;;5027138;28;20252;-59
2023/08/31 06:12:07;;;;;;;3.23;2.50;;;15.50;99.90;;;;;;5030727;28;20190;-59
2023/08/31 06:14:34;;;;;;;2.50;2.10;;;15.50;99.90;;;;;;5031787;28;20253;-59
2023/08/31 06:17:02;;;;;;;2.90;2.73;;;15.50;99.90;;;;;;5025175;28;20194;-59
2023/08/31 06:19:29;;;;;;;2.17;2.07;;;15.50;99.90;;;;;;5032110;28;20748;-59
2023/08/31 06:21:56;;;;;;;1.67;1.67;;;15.50;99.90;;;;;;5031900;28;20218;-59
2023/08/31 06:24:23;;;;;;;2.60;1.80;;;15.50;99.90;;;;;;5024801;28;20227;-59
2023/08/31 06:26:51;;;;;;;3.53;3.13;;;15.50;99.90;;;;;;5027765;28;20591;-58
2023/08/31 06:29:19;;;;;;;3.43;3.00;;;15.50;99.90;;;;;;5031804;28;20577;-59
2023/08/31 06:31:46;;;;;;;2.57;2.47;;;15.50;99.90;;;;;;5028483;28;20661;-58
2023/08/31 06:34:14;;;;;;;2.30;2.10;;;15.60;99.90;;;;;;5023973;28;20218;-59
2023/08/31 06:36:41;;;;;;;1.87;1.87;;;15.60;99.90;;;;;;5029570;28;20202;-57
2023/08/31 06:39:08;;;;;;;2.60;2.50;;;15.50;99.90;;;;;;5028443;28;20206;-57
2023/08/31 06:41:35;;;;;;;2.53;2.33;;;15.50;99.90;;;;;;5031722;28;20207;-56
2023/08/31 06:44:04;;;;;;;4.20;2.20;;;15.40;99.90;;;;;;5027335;28;20269;-57
2023/08/31 06:46:33;;;;;;;1.83;1.73;;;15.40;99.90;;;;;;5026686;28;20199;-57
2023/08/31 06:49:00;;;;;;;1.87;1.80;;;15.30;99.90;;;;;;5045595;28;20744;-57
2023/08/31 06:51:29;;;;;;;2.53;2.30;;;15.30;99.90;;;;;;5051495;28;20288;-57
2023/08/31 06:53:56;;;;;;;2.83;2.60;;;15.30;99.90;;;;;;5028950;28;20227;-57
2023/08/31 06:56:23;;;;;;;2.53;2.27;;;15.40;99.90;;;;;;5025062;28;20203;-57
2023/08/31 06:58:50;;;;;;;5.77;1.90;;;15.50;99.90;;;;;;5025045;28;20199;-57
2023/08/31 07:01:17;;;;;;;2.43;2.33;;;15.50;99.90;;;;;;5030540;28;20190;-57
2023/08/31 07:03:46;;;;;;;2.63;2.47;;;15.60;99.90;;;;;;5027293;28;20769;-56
2023/08/31 07:06:13;;;;;;;2.53;2.40;;;15.50;99.90;;;;;;5032516;28;20210;-57
2023/08/31 07:08:45;;;;;;;2.97;2.67;;;15.50;99.90;;;;;;5028620;28;20214;-57
2023/08/31 07:11:12;;;;;;;2.30;2.20;;;15.50;99.90;;;;;;5027239;28;20195;-57
2023/08/31 07:13:39;;;;;;;2.17;2.07;;;15.40;99.90;;;;;;5014951;28;20268;-57
2023/08/31 07:16:06;;;;;;;1.87;1.77;;;15.40;99.90;;;;;;5027938;28;20191;-57
2023/08/31 07:18:33;;;;;;;2.90;2.33;;;15.30;99.90;;;;;;5010521;28;20644;-57
2023/08/31 07:21:01;;;;;;;1.70;1.70;;;15.40;99.90;;;;;;5011772;28;20199;-57
2023/08/31 07:23:27;;;;;;;3.30;2.30;;;15.50;99.90;;;;;;5043756;28;20240;-57
2023/08/31 07:25:59;;;;;;;2.77;2.57;;;15.60;99.90;;;;;;5029335;28;20249;-57
2023/08/31 07:28:27;;;;;;;1.83;1.73;;;15.60;99.90;;;;;;5011372;28;20213;-57
2023/08/31 07:31:03;;;;;;;2.37;2.30;;;15.70;99.90;;;;;;5011335;28;20265;-57
2023/08/31 07:33:31;;;;;;;2.43;2.23;;;15.90;99.90;;;;;;5015068;28;20218;-57
2023/08/31 07:35:58;;;;;;;2.30;2.10;;;16.00;99.90;;;;;;5035528;28;20305;-57
2023/08/31 07:38:25;;;;;;;2.57;2.47;;;16.20;99.90;;;;;;5020868;28;20242;-57
2023/08/31 07:40:52;;;;;;;3.23;3.13;;;16.30;99.90;;;;;;5057701;28;20212;-57
2023/08/31 07:43:21;;;;;;;2.53;2.43;;;16.30;99.90;;;;;;5053953;28;20283;-56
2023/08/31 07:45:49;;;;;;;2.93;2.73;;;16.20;99.90;;;;;;5036819;28;20256;-57
2023/08/31 07:48:16;;;;;;;3.47;3.17;;;16.20;99.90;;;;;;5028861;28;20246;-57
2023/08/31 07:50:44;;;;;;;4.40;2.43;;;16.30;99.90;;;;;;5038070;28;20205;-57
2023/08/31 07:53:12;;;;;;;2.87;2.67;;;16.40;99.90;;;;;;5035971;28;20279;-57
2023/08/31 07:55:40;;;;;;;2.57;2.37;;;16.60;99.90;;;;;;5075026;23;20760;-55
2023/08/31 07:58:07;;;;;;;2.20;2.10;;;16.70;99.90;;;;;;5017430;28;20195;-56
2023/08/31 08:00:35;;;;;;;3.07;2.83;;;16.60;99.90;;;;;;5017596;28;20289;-56
2023/08/31 08:03:02;;;;;;;2.47;2.27;;;16.50;99.90;;;;;;5016796;28;20655;-55
2023/08/31 08:05:29;;;;;;;2.37;2.27;;;16.40;99.90;;;;;;5016739;28;20219;-54
2023/08/31 08:07:56;;;;;;;3.47;2.63;;;16.30;99.90;;;;;;5017019;28;20199;-56
2023/08/31 08:10:23;;;;;;;2.57;2.37;;;16.10;99.90;;;;;;5016583;28;20620;-56
2023/08/31 08:12:50;;;;;;;2.23;2.13;;;16.10;99.90;;;;;;5016113;28;20257;-56
2023/08/31 08:15:17;;;;;;;2.00;1.90;;;16.10;99.90;;;;;;5017805;28;20300;-56
2023/08/31 08:17:45;;;;;;;2.63;2.53;;;16.10;99.90;;;;;;5008277;28;20199;-55
2023/08/31 08:20:12;;;;;;;2.77;2.57;;;16.10;99.90;;;;;;5017628;28;20198;-55
2023/08/31 08:22:39;;;;;;;2.67;2.37;;;16.10;99.90;;;;;;5016432;28;20215;-55
2023/08/31 08:25:07;;;;;;;2.53;2.40;;;16.20;99.90;;;;;;5017295;28;20227;-56
2023/08/31 08:27:36;;;;;;;2.80;2.60;;;16.20;99.90;;;;;;5008406;28;20196;-56
2023/08/31 08:30:04;;;;;;;2.43;2.33;;;16.30;99.90;;;;;;5016612;28;20219;-55
2023/08/31 08:32:31;;;;;;;2.33;2.23;;;16.20;99.90;;;;;;5016920;28;20214;-55
2023/08/31 08:34:59;;;;;;;2.33;2.23;;;16.40;99.90;;;;;;5017647;28;20728;-55
2023/08/31 08:37:26;;;;;;;4.33;2.97;;;16.60;99.90;;;;;;5006663;28;20790;-55
2023/08/31 08:39:53;;;;;;;2.50;2.33;;;16.70;99.90;;;;;;5015323;28;20253;-56
2023/08/31 08:42:21;;;;;;;3.73;2.90;;;16.70;99.90;;;;;;5016463;28;20258;-56
2023/08/31 08:44:48;;;;;;;3.50;3.30;;;16.50;99.90;;;;;;5016294;28;20278;-55
2023/08/31 08:47:16;;;;;;;2.47;2.37;;;16.60;99.90;;;;;;5008048;28;20199;-55
2023/08/31 08:49:44;;;;;;;2.70;2.50;;;16.60;99.90;;;;;;5005220;28;20261;-56
2023/08/31 08:52:13;;;;;;;3.63;2.70;;;16.70;99.90;;;;;;5013534;28;20199;-55
2023/08/31 08:54:40;;;;;;;2.40;2.23;;;16.70;99.90;;;;;;5013858;28;20242;-55
2023/08/31 08:57:07;;;;;;;2.77;2.67;;;16.70;99.90;;;;;;5012566;28;20265;-55
2023/08/31 08:59:35;;;;;;;4.03;2.93;;;16.70;99.90;;;;;;5012108;28;20203;-55
2023/08/31 09:02:03;;;;;;;6.17;3.63;;;16.70;99.90;;;;;;5013238;28;20207;-55
2023/08/31 09:04:31;;;;;;;2.60;2.50;;;16.70;99.90;;;;;;5011585;28;20223;-56
2023/08/31 09:06:58;;;;;;;4.33;4.03;;;16.90;99.90;;;;;;5010847;28;20200;-55
2023/08/31 09:09:26;;;;;;;3.23;3.03;;;17.20;99.90;;;;;;5008026;28;20679;-55
2023/08/31 09:11:55;;;;;;;2.10;2.00;;;17.50;99.90;;;;;;5013654;28;20207;-55
2023/08/31 09:14:22;;;;;;;2.53;2.43;;;17.60;99.90;;;;;;5012283;28;20222;-55
2023/08/31 09:16:51;;;;;;;2.87;2.40;;;17.60;99.90;;;;;;5011919;28;20258;-55
2023/08/31 09:19:22;;;;;;;3.23;2.53;;;17.50;99.90;;;;;;5006799;28;20195;-56
2023/08/31 09:21:49;;;;;;;2.97;2.77;;;17.50;99.90;;;;;;5011443;28;20273;-55
2023/08/31 09:24:17;;;;;;;2.40;2.30;;;17.60;99.90;;;;;;5011545;28;20223;-55
2023/08/31 09:26:46;;;;;;;3.37;2.53;;;17.80;99.90;;;;;;5012292;28;20657;-55
2023/08/31 09:29:14;;;;;;;3.43;3.33;;;17.70;99.90;;;;;;5006261;28;20206;-55
2023/08/31 09:31:43;;;;;;;3.63;2.70;;;17.50;99.90;;;;;;5013633;28;20245;-55
2023/08/31 09:34:10;;;;;;;2.97;2.77;;;17.40;99.90;;;;;;5011922;28;20298;-56
2023/08/31 09:36:38;;;;;;;3.50;2.60;;;17.30;99.90;;;;;;5012490;28;20207;-55
2023/08/31 09:39:06;;;;;;;3.23;3.03;;;17.30;99.90;;;;;;5012937;28;20200;-55
2023/08/31 09:41:34;;;;;;;4.80;2.80;;;17.40;99.90;;;;;;5013097;28;20207;-55
2023/08/31 09:44:17;;;;;;;4.50;2.67;;;17.50;99.90;;;;;;5011619;28;20315;-55
2023/08/31 09:46:44;;;;;;;4.20;2.80;;;17.50;99.90;;;;;;5011192;28;20210;-55
2023/08/31 09:49:14;;;;;;;5.70;2.20;;;17.50;99.90;;;;;;5012219;28;20219;-55
2023/08/31 09:51:45;;;;;;;2.97;2.77;;;17.50;99.90;;;;;;5013085;28;20258;-55
2023/08/31 09:54:15;;;;;;;2.50;2.30;;;17.60;99.90;;;;;;5012342;28;20230;-55
2023/08/31 09:56:44;;;;;;;2.37;2.27;;;17.70;99.90;;;;;;5011433;28;20211;-55
2023/08/31 09:59:13;;;;;;;2.90;2.70;;;17.90;99.90;;;;;;5010783;28;20212;-55
2023/08/31 10:01:41;;;;;;;2.57;2.10;;;17.80;99.90;;;;;;5012639;28;20199;-55
2023/08/31 10:04:09;;;;;;;2.97;2.20;;;18.10;99.90;;;;;;5010801;28;20706;-55
2023/08/31 10:06:36;;;;;;;1.87;1.77;;;18.40;99.90;;;;;;5012053;28;20273;-55
2023/08/31 10:09:05;;;;;;;1.93;1.83;;;18.50;99.90;;;;;;5003502;28;20287;-55
2023/08/31 10:11:32;;;;;;;1.30;1.30;;;18.60;99.90;;;;;;5012410;28;20191;-55
2023/08/31 10:14:00;;;;;;;2.93;2.83;;;18.70;99.90;;;;;;5011583;28;20210;-55
2023/08/31 10:16:28;;;;;;;2.10;2.00;;;18.80;99.90;;;;;;5011559;28;20199;-55
2023/08/31 10:18:56;;;;;;;1.87;1.60;;;18.90;99.90;;;;;;5004279;28;20195;-55
2023/08/31 10:21:23;;;;;;;2.23;1.93;;;19.10;99.90;;;;;;5011599;28;20289;-55
2023/08/31 10:23:51;;;;;;;1.37;1.37;;;19.50;99.90;;;;;;5011387;28;20277;-56
2023/08/31 10:26:25;;;;;;;2.53;1.77;;;20.20;99.90;;;;;;5011009;28;20195;-55
2023/08/31 10:28:53;;;;;;;2.80;1.93;;;20.40;99.90;;;;;;5004330;28;20202;-56
2023/08/31 10:31:22;;;;;;;2.00;1.43;;;20.40;99.90;;;;;;5012387;28;20463;-55
2023/08/31 10:33:58;;;;;;;2.33;2.23;;;20.10;99.90;;;;;;5010641;28;20199;-55
2023/08/31 10:36:37;;;;;;;2.30;1.97;;;19.80;99.90;;;;;;5010892;28;20285;-55
2023/08/31 10:39:11;;;;;;;2.70;1.97;;;19.30;99.90;;;;;;5011898;28;20195;-55
2023/08/31 10:41:38;;;;;;;2.03;1.30;;;19.10;99.90;;;;;;5012138;28;20210;-55
2023/08/31 10:44:20;;;;;;;1.43;1.20;;;18.90;99.90;;;;;;5011290;28;20289;-55
2023/08/31 10:46:47;;;;;;;1.67;1.63;;;18.80;99.90;;;;;;5010366;28;20226;-55
2023/08/31 10:49:17;;;;;;;2.00;1.90;;;18.70;99.90;;;;;;5011782;28;20269;-55
2023/08/31 10:51:46;;;;;;;1.80;1.70;;;18.60;99.90;;;;;;5012135;28;20573;-55
2023/08/31 10:54:14;;;;;;;1.10;1.10;;;18.60;99.90;;;;;;5009563;28;20231;-55
2023/08/31 10:57:04;;;;;;;1.70;1.60;;;18.50;99.90;;;;;;5011130;28;20894;-55
2023/08/31 10:59:51;;;;;;;2.13;1.70;;;18.60;99.90;;;;;;4992316;28;20299;-55
2023/08/31 11:02:29;;;;;;;1.70;1.70;;;18.70;99.90;;;;;;4991734;28;20330;-55
2023/08/31 11:05:03;;;;;;;2.03;1.60;;;18.80;99.90;;;;;;5000102;28;20215;-55
2023/08/31 11:07:31;;;;;;;1.80;1.70;;;18.80;99.90;;;;;;5009893;28;20289;-55
2023/08/31 11:10:10;;;;;;;1.70;1.60;;;18.80;99.90;;;;;;5010264;28;20203;-55
2023/08/31 11:12:37;;;;;;;1.70;1.60;;;18.70;99.90;;;;;;5011488;28;20278;-56
2023/08/31 11:15:05;;;;;;;1.90;1.80;;;18.70;99.90;;;;;;5010144;28;20222;-56
2023/08/31 11:17:32;;;;;;;1.80;1.70;;;18.70;99.90;;;;;;5010905;28;20199;-55
2023/08/31 11:20:05;;;;;;;2.20;2.03;;;18.80;99.90;;;;;;5011449;28;20282;-56
2023/08/31 11:22:32;;;;;;;1.73;1.60;;;18.70;99.90;;;;;;5011093;28;20290;-55
2023/08/31 11:24:59;;;;;;;1.60;1.50;;;18.90;99.90;;;;;;5002284;28;20760;-56
2023/08/31 11:27:26;;;;;;;3.70;2.17;;;19.20;99.90;;;;;;5010731;28;20616;-55
2023/08/31 11:29:53;;;;;;;2.73;2.30;;;19.40;99.90;;;;;;5010494;28;20199;-56
2023/08/31 11:32:20;;;;;;;2.03;1.73;;;19.60;99.90;;;;;;5010588;28;20195;-55
2023/08/31 11:34:47;;;;;;;2.03;1.43;;;19.70;99.90;;;;;;5007144;28;20219;-55
2023/08/31 11:37:17;;;;;;;2.17;1.87;;;19.80;99.90;;;;;;5010507;28;20199;-55
2023/08/31 11:39:49;;;;;;;1.90;1.80;;;19.80;99.90;;;;;;5005041;28;20624;-55
2023/08/31 11:42:18;;;;;;;1.70;1.63;;;19.80;99.90;;;;;;4991128;28;20243;-55
2023/08/31 11:44:46;;;;;;;1.37;1.33;;;19.90;99.90;;;;;;4997208;28;20282;-55
2023/08/31 11:47:14;;;;;;;2.17;1.93;;;20.00;99.90;;;;;;5011252;28;20334;-56
2023/08/31 11:49:42;;;;;;;1.83;1.40;;;19.90;99.90;;;;;;5011564;28;20207;-56
2023/08/31 11:52:11;;;;;;;1.90;1.77;;;20.00;99.90;;;;;;5010612;28;20206;-55
2023/08/31 11:54:40;;;;;;;1.53;1.43;;;20.10;99.90;;;;;;5008893;28;20697;-55
2023/08/31 11:57:09;;;;;;;2.20;1.40;;;20.20;99.90;;;;;;5011210;28;20282;-55
2023/08/31 11:59:37;;;;;;;1.80;1.27;;;20.20;99.90;;;;;;5011319;28;20293;-55
2023/08/31 12:02:07;;;;;;;2.67;1.30;;;20.00;99.90;;;;;;5011225;28;20280;-55
2023/08/31 12:04:42;;;;;;;1.30;1.30;;;20.10;99.90;;;;;;5009125;28;20313;-56
2023/08/31 12:07:09;;;;;;;2.43;1.10;;;20.10;99.90;;;;;;5003357;28;20221;-56
2023/08/31 12:09:37;;;;;;;4.00;1.20;;;20.20;99.90;;;;;;5011074;28;20207;-56
2023/08/31 12:12:06;;;;;;;2.03;1.10;;;20.20;99.90;;;;;;5010226;28;20677;-56
2023/08/31 12:14:33;;;;;;;3.03;1.00;;;20.10;99.90;;;;;;5010652;28;20219;-55
2023/08/31 12:17:04;;;;;;;1.20;1.10;;;20.00;99.90;;;;;;5011193;28;20269;-55
2023/08/31 12:19:32;;;;;;;1.60;0.97;;;20.00;99.90;;;;;;5011503;28;20211;-55
2023/08/31 12:21:59;;;;;;;1.40;1.30;;;20.10;99.90;;;;;;5014924;28;20557;-55
2023/08/31 12:24:27;;;;;;;1.67;1.43;;;20.10;99.90;;;;;;5006888;28;20286;-56
2023/08/31 12:26:54;;;;;;;4.23;1.80;;;20.20;99.90;;;;;;5012796;28;20747;-55
2023/08/31 12:29:23;;;;;;;1.60;1.50;;;20.10;99.90;;;;;;5013856;28;20712;-56
2023/08/31 12:31:51;;;;;;;1.00;1.00;;;20.20;99.90;;;;;;5014547;28;20570;-55
2023/08/31 12:34:18;;;;;;;2.13;0.90;;;20.30;99.90;;;;;;5011828;28;20246;-56
2023/08/31 12:36:45;;;;;;;1.33;1.23;;;20.50;99.90;;;;;;5006202;28;20257;-55
2023/08/31 12:39:12;;;;;;;1.53;0.93;;;20.70;99.90;;;;;;5014813;28;20208;-55
2023/08/31 12:41:40;;;;;;;0.73;0.73;;;20.70;99.90;;;;;;5014506;28;20257;-56
2023/08/31 12:44:09;;;;;;;1.00;0.90;;;20.80;99.90;;;;;;5011956;28;20223;-55
2023/08/31 12:46:37;;;;;;;2.17;1.40;;;20.90;99.90;;;;;;5013560;28;20207;-55
2023/08/31 12:49:04;;;;;;;0.80;0.80;;;21.00;99.90;;;;;;5014267;28;20249;-55
2023/08/31 12:51:31;;;;;;;0.90;0.90;;;21.20;99.90;;;;;;5014060;28;20207;-55
2023/08/31 12:53:59;;;;;;;2.23;1.00;;;21.20;99.90;;;;;;5010543;28;20211;-55